createdAt,value
2023-03-21T00:04:21.448Z,19.15
2023-03-21T00:09:43.412Z,19.12
2023-03-21T00:15:09.797Z,19.12
2023-03-21T00:20:34.796Z,19.08
2023-03-21T00:25:57.168Z,19.06
2023-03-21T00:31:18.905Z,19.02
2023-03-21T00:36:40.693Z,19.01
2023-03-21T00:42:02.484Z,18.98
2023-03-21T00:47:25.825Z,18.97
2023-03-21T00:52:47.748Z,18.96
2023-03-21T00:58:09.556Z,18.93
2023-03-21T01:03:31.574Z,18.91
2023-03-21T01:08:53.784Z,18.90
2023-03-21T01:14:24.463Z,18.88
2023-03-21T01:19:52.085Z,18.86
2023-03-21T01:25:22.220Z,18.85
2023-03-21T01:30:52.157Z,18.85
2023-03-21T01:36:23.894Z,18.82
2023-03-21T01:41:46.056Z,18.79
2023-03-21T01:47:12.562Z,18.77
2023-03-21T01:52:39.195Z,18.76
2023-03-21T01:58:06.975Z,18.75
2023-03-21T02:03:38.635Z,18.74
2023-03-21T02:09:04.899Z,18.72
2023-03-21T02:14:29.278Z,18.71
2023-03-21T02:20:12.047Z,18.69
2023-03-21T02:25:57.945Z,18.68
2023-03-21T02:31:24.819Z,18.66
2023-03-21T02:36:57.902Z,18.65
2023-03-21T02:42:44.961Z,18.63
2023-03-21T02:48:26.643Z,18.61
2023-03-21T02:54:23.794Z,18.60
2023-03-21T02:59:51.652Z,18.58
2023-03-21T03:05:30.709Z,18.58
2023-03-21T03:11:16.947Z,18.57
2023-03-21T03:16:59.495Z,18.55
2023-03-21T03:22:31.282Z,18.53
2023-03-21T03:27:56.587Z,18.53
2023-03-21T03:33:23.647Z,18.51
2023-03-21T03:38:48.665Z,18.49
2023-03-21T03:44:10.614Z,18.49
2023-03-21T03:49:39.729Z,18.48
2023-03-21T03:55:02.093Z,18.46
2023-03-21T04:00:23.822Z,18.46
2023-03-21T04:05:48.698Z,18.44
2023-03-21T04:11:13.290Z,18.43
2023-03-21T04:16:35.947Z,18.42
2023-03-21T04:21:57.786Z,18.42
2023-03-21T04:27:19.698Z,18.40
2023-03-21T04:32:41.751Z,18.42
2023-03-21T04:38:03.552Z,18.38
2023-03-21T04:43:25.255Z,18.37
2023-03-21T04:48:47.382Z,18.36
2023-03-21T04:54:12.049Z,18.37
2023-03-21T04:59:34.239Z,18.36
2023-03-21T05:04:57.628Z,18.34
2023-03-21T05:10:19.347Z,18.33
2023-03-21T05:15:41.021Z,18.32
2023-03-21T05:21:04.347Z,18.32
2023-03-21T05:26:26.039Z,18.31
2023-03-21T05:31:47.860Z,18.29
2023-03-21T05:37:09.615Z,18.28
2023-03-21T05:42:31.379Z,18.28
2023-03-21T05:47:53.064Z,18.27
2023-03-21T05:53:14.764Z,18.25
2023-03-21T05:58:36.504Z,18.25
2023-03-21T06:03:58.275Z,18.25
2023-03-21T06:09:21.138Z,18.33
2023-03-21T06:14:42.880Z,18.68
2023-03-21T06:20:07.337Z,18.94
2023-03-21T06:25:29.110Z,19.12
2023-03-21T06:30:50.866Z,19.24
2023-03-21T06:36:12.687Z,19.27
2023-03-21T06:41:34.616Z,19.29
2023-03-21T06:46:56.502Z,19.24
2023-03-21T06:52:18.250Z,19.20
2023-03-21T06:57:39.980Z,19.14
2023-03-21T07:03:02.062Z,19.07
2023-03-21T07:08:23.966Z,19.01
2023-03-21T07:13:46.099Z,18.96
2023-03-21T07:19:07.827Z,18.90
2023-03-21T07:24:29.781Z,18.83
2023-03-21T07:29:51.516Z,18.76
2023-03-21T07:35:14.784Z,18.68
2023-03-21T07:40:36.768Z,18.66
2023-03-21T07:45:59.475Z,18.72
2023-03-21T07:51:21.466Z,18.82
2023-03-21T07:56:43.202Z,18.91
2023-03-21T08:02:05.213Z,19.02
2023-03-21T08:07:27.934Z,19.10
2023-03-21T08:12:50.318Z,19.17
2023-03-21T08:18:12.320Z,19.23
2023-03-21T08:23:34.556Z,19.41
2023-03-21T08:28:56.394Z,19.76
2023-03-21T08:34:18.307Z,20.02
2023-03-21T08:39:40.090Z,20.27
2023-03-21T08:45:01.828Z,20.48
2023-03-21T08:50:26.747Z,20.64
2023-03-21T08:55:49.644Z,20.74
2023-03-21T09:01:15.900Z,20.75
2023-03-21T09:06:41.112Z,20.71
2023-03-21T09:12:03.119Z,20.62
2023-03-21T09:17:25.065Z,20.51
2023-03-21T09:22:52.153Z,20.44
2023-03-21T09:28:14.651Z,20.36
2023-03-21T09:33:36.353Z,20.27
2023-03-21T09:38:58.141Z,20.16
2023-03-21T09:44:44.751Z,20.09
2023-03-21T09:50:22.126Z,19.95
2023-03-21T09:55:44.693Z,19.89
2023-03-21T10:01:30.115Z,19.83
2023-03-21T10:07:00.129Z,19.78
2023-03-21T10:12:23.226Z,19.71
2023-03-21T10:17:53.150Z,19.68
2023-03-21T10:23:18.080Z,19.64
2023-03-21T10:28:52.543Z,19.58
2023-03-21T10:34:30.395Z,19.57
2023-03-21T10:39:54.329Z,19.53
2023-03-21T10:45:20.678Z,19.50
2023-03-21T10:50:47.112Z,19.48
2023-03-21T10:56:11.350Z,19.45
2023-03-21T11:01:40.706Z,19.46
2023-03-21T11:07:09.509Z,19.46
2023-03-21T11:12:40.942Z,19.49
2023-03-21T11:18:21.712Z,19.51
2023-03-21T11:23:49.660Z,19.65
2023-03-21T11:29:28.001Z,19.96
2023-03-21T11:34:59.669Z,20.22
2023-03-21T11:40:27.850Z,20.46
2023-03-21T11:45:59.711Z,20.67
2023-03-21T11:51:41.597Z,20.79
2023-03-21T11:57:52.043Z,20.79
2023-03-21T12:03:48.783Z,20.78
2023-03-21T12:09:31.534Z,20.74
2023-03-21T12:15:14.194Z,20.72
2023-03-21T12:20:41.672Z,20.66
2023-03-21T12:26:03.402Z,20.60
2023-03-21T12:31:43.546Z,20.54
2023-03-21T12:37:11.968Z,20.45
2023-03-21T12:42:52.984Z,20.38
2023-03-21T12:48:28.423Z,20.31
2023-03-21T12:53:56.987Z,20.23
2023-03-21T12:59:38.468Z,20.16
2023-03-21T13:05:27.965Z,20.10
2023-03-21T13:10:49.780Z,20.01
2023-03-21T13:16:14.275Z,19.97
2023-03-21T13:21:42.008Z,19.94
2023-03-21T13:27:07.233Z,19.90
2023-03-21T13:32:40.670Z,19.88
2023-03-21T13:38:09.085Z,19.83
2023-03-21T13:43:44.360Z,19.80
2023-03-21T13:49:09.037Z,19.77
2023-03-21T13:54:56.845Z,19.75
2023-03-21T14:00:30.325Z,19.73
2023-03-21T14:05:52.672Z,19.75
2023-03-21T14:11:18.720Z,19.82
2023-03-21T14:16:41.685Z,19.89
2023-03-21T14:22:05.123Z,19.98
2023-03-21T14:27:31.684Z,20.07
2023-03-21T14:33:00.036Z,20.08
2023-03-21T14:38:27.874Z,20.10
2023-03-21T14:44:14.171Z,20.10
2023-03-21T14:49:37.564Z,20.13
2023-03-21T14:55:00.917Z,20.16
2023-03-21T15:00:27.278Z,20.23
2023-03-21T15:05:49.113Z,20.30
2023-03-21T15:11:13.148Z,20.38
2023-03-21T15:16:36.569Z,20.43
2023-03-21T15:22:06.435Z,20.47
2023-03-21T15:27:33.061Z,20.49
2023-03-21T15:32:59.589Z,20.49
2023-03-21T15:38:36.542Z,20.44
2023-03-21T15:44:10.519Z,20.36
2023-03-21T15:49:34.778Z,20.26
2023-03-21T15:54:56.872Z,20.17
2023-03-21T16:00:23.058Z,20.09
2023-03-21T16:06:05.653Z,20.02
2023-03-21T16:11:28.918Z,19.93
2023-03-21T16:16:51.347Z,19.85
2023-03-21T16:22:13.327Z,19.78
2023-03-21T16:27:35.082Z,19.73
2023-03-21T16:32:57.294Z,19.65
2023-03-21T16:38:18.974Z,19.63
2023-03-21T16:43:43.455Z,19.57
2023-03-21T16:49:05.781Z,19.56
2023-03-21T16:54:27.558Z,19.56
2023-03-21T16:59:49.331Z,19.56
2023-03-21T17:05:11.773Z,19.58
2023-03-21T17:10:33.840Z,19.67
2023-03-21T17:15:55.670Z,19.83
2023-03-21T17:21:20.968Z,19.99
2023-03-21T17:26:42.682Z,20.11
2023-03-21T17:32:04.513Z,20.23
2023-03-21T17:37:26.426Z,20.35
2023-03-21T17:42:49.490Z,20.40
2023-03-21T17:48:11.718Z,20.40
2023-03-21T17:53:33.458Z,20.37
2023-03-21T17:58:56.114Z,20.33
2023-03-21T18:04:17.857Z,20.25
2023-03-21T18:09:42.969Z,20.16
2023-03-21T18:15:13.870Z,20.07
2023-03-21T18:20:51.638Z,20.04
2023-03-21T18:26:18.300Z,20.01
2023-03-21T18:31:40.435Z,19.98
2023-03-21T18:37:04.005Z,20.01
2023-03-21T18:42:30.560Z,20.08
2023-03-21T18:47:53.057Z,20.18
2023-03-21T18:53:14.790Z,20.28
2023-03-21T18:58:36.839Z,20.37
2023-03-21T19:15:25.110Z,20.60
2023-03-21T19:20:47.437Z,20.66
2023-03-21T19:26:09.274Z,20.73
2023-03-21T19:31:31.172Z,20.75
2023-03-21T19:36:53.204Z,20.78
2023-03-21T19:42:17.127Z,20.75
2023-03-21T19:47:39.522Z,20.71
2023-03-21T19:53:01.410Z,20.65
2023-03-21T19:58:23.295Z,20.59
2023-03-21T20:03:45.281Z,20.53
2023-03-21T20:09:49.243Z,20.48
2023-03-21T20:14:49.283Z,20.42
2023-03-21T20:20:14.268Z,20.38
2023-03-21T20:25:40.051Z,20.39
2023-03-21T20:31:02.166Z,20.43
2023-03-21T20:36:38.840Z,20.45
2023-03-21T20:42:03.186Z,20.49
2023-03-21T20:47:25.099Z,20.48
2023-03-21T20:53:04.550Z,20.48
2023-03-21T20:58:55.198Z,20.46
2023-03-21T21:04:09.560Z,20.45
2023-03-21T21:09:31.833Z,20.43
2023-03-21T21:14:54.492Z,20.40
2023-03-21T21:20:17.134Z,20.36
2023-03-21T21:25:39.026Z,20.31
2023-03-21T21:31:12.655Z,20.27
2023-03-21T21:36:34.468Z,20.22
2023-03-21T21:41:56.293Z,20.23
2023-03-21T21:47:18.020Z,20.21
2023-03-21T21:52:43.733Z,20.19
2023-03-21T21:58:08.541Z,20.15
2023-03-21T22:03:41.143Z,20.10
2023-03-21T22:09:04.687Z,20.06
2023-03-21T22:14:26.380Z,20.01
2023-03-21T22:20:02.656Z,19.97
2023-03-21T22:25:27.019Z,19.93
2023-03-21T22:30:49.125Z,19.89
2023-03-21T22:36:11.309Z,19.85
2023-03-21T22:41:33.047Z,19.81
2023-03-21T22:46:54.757Z,19.79
2023-03-21T22:52:16.475Z,19.74
2023-03-21T22:57:38.417Z,19.71
2023-03-21T23:03:00.205Z,19.66
2023-03-21T23:08:21.915Z,19.63
2023-03-21T23:13:47.539Z,19.61
2023-03-21T23:19:10.760Z,19.57
2023-03-21T23:24:32.573Z,19.54
2023-03-21T23:29:54.572Z,19.52
2023-03-21T23:35:16.470Z,19.50
2023-03-21T23:40:41.872Z,19.48
2023-03-21T23:46:04.215Z,19.43
2023-03-21T23:51:26.172Z,19.43
2023-03-21T23:56:48.068Z,19.41
